This is the latest recevied weather packets stored in our database for station/object DL5ARK. If no packets are shown the sender has not sent any weather packets the latest 10 day(s).
| Time | Temp. | Humidity | Pressure | Rain* | Wind** | Luminosity | Snow |
|---|---|---|---|---|---|---|---|
| 1777719108 | 22.22° C | 39% | 1009.7 hPa | 0 mm | - | - | - |
| 1777718927 | 21.67° C | 36% | 1009.7 hPa | 0 mm | - | - | - |
| 1777718747 | 22.22° C | 40% | 1009.7 hPa | 0 mm | - | - | - |
| 1777718567 | 22.22° C | 43% | 1009.7 hPa | 0 mm | - | - | - |
| 1777718207 | 21.67° C | 41% | 1009.9 hPa | 0 mm | - | - | - |
| 1777718027 | 21.67° C | 41% | 1009.9 hPa | 0 mm | - | - | - |
| 1777717850 | 21.67° C | 38% | 1009.9 hPa | 0 mm | - | - | - |
| 1777717667 | 21.67° C | 38% | 1010.2 hPa | 0 mm | - | - | - |
| 1777717488 | 21.67° C | 39% | 1010.2 hPa | 0 mm | - | - | - |
| 1777717308 | 21.11° C | 39% | 1010.2 hPa | 0 mm | - | - | - |
| 1777716948 | 21.11° C | 42% | 1010.2 hPa | 0 mm | - | - | - |
| 1777716767 | 21.11° C | 44% | 1010.2 hPa | 0 mm | - | - | - |
| 1777716588 | 20.56° C | 42% | 1010.4 hPa | 0 mm | - | - | - |
| 1777716408 | 21.11° C | 44% | 1010.2 hPa | 0 mm | - | - | - |
| 1777716230 | 21.11° C | 45% | 1010.4 hPa | 0 mm | - | - | - |
| 1777716047 | 21.11° C | 42% | 1010.4 hPa | 0 mm | - | - | - |
| 1777715508 | 20.56° C | 42% | 1010.4 hPa | 0 mm | - | - | - |
| 1777715328 | 20.56° C | 42% | 1010.7 hPa | 0 mm | - | - | - |
| 1777715148 | 20.56° C | 46% | 1010.7 hPa | 0 mm | - | - | - |
| 1777714787 | 20° C | 46% | 1010.7 hPa | 0 mm | - | - | - |
| 1777714608 | 20° C | 47% | 1010.7 hPa | 0 mm | - | - | - |
| 1777714427 | 20° C | 48% | 1010.7 hPa | 0 mm | - | - | - |
| 1777714248 | 19.44° C | 47% | 1010.7 hPa | 0 mm | - | - | - |
| 1777714071 | 19.44° C | 50% | 1010.7 hPa | 0 mm | - | - | - |
| 1777713888 | 19.44° C | 48% | 1010.7 hPa | 0 mm | - | - | - |
* Rain latest hour (hover to see other rain measurements)
** Current wind speed in m/s (hover to see current wind gust speed)